sensor_id;sensor_type;location;lat;lon;timestamp;pressure;altitude;pressure_sealevel;temperature;humidity
16030;BME280;34770;49.272;11.070;2023-02-22T02:45:38;97533.72;;;0.53;100.00
16030;BME280;34770;49.272;11.070;2023-02-22T03:32:09;97513.66;;;0.39;100.00
16030;BME280;34770;49.272;11.070;2023-02-22T03:34:46;97519.34;;;0.42;100.00
16030;BME280;34770;49.272;11.070;2023-02-22T03:37:24;97518.00;;;0.40;100.00
16030;BME280;34770;49.272;11.070;2023-02-22T03:39:53;97499.47;;;0.37;100.00
16030;BME280;34770;49.272;11.070;2023-02-22T03:42:23;97542.81;;;0.68;100.00
16030;BME280;34770;49.272;11.070;2023-02-22T03:44:52;97516.59;;;0.42;100.00
16030;BME280;34770;49.272;11.070;2023-02-22T04:08:03;97503.81;;;0.19;100.00
16030;BME280;34770;49.272;11.070;2023-02-22T04:10:31;97485.94;;;0.02;100.00
16030;BME280;34770;49.272;11.070;2023-02-22T04:12:57;97526.38;;;0.29;100.00
16030;BME280;34770;49.272;11.070;2023-02-22T04:15:24;97545.81;;;0.28;100.00
16030;BME280;34770;49.272;11.070;2023-02-22T04:17:50;97494.31;;;-0.08;100.00
16030;BME280;34770;49.272;11.070;2023-02-22T04:20:19;97516.50;;;0.09;100.00
16030;BME280;34770;49.272;11.070;2023-02-22T04:22:53;97520.50;;;-0.02;100.00
16030;BME280;34770;49.272;11.070;2023-02-22T04:25:20;97488.38;;;-0.15;100.00
16030;BME280;34770;49.272;11.070;2023-02-22T04:27:46;97483.34;;;-0.08;100.00
16030;BME280;34770;49.272;11.070;2023-02-22T04:30:11;97496.81;;;0.07;100.00
16030;BME280;34770;49.272;11.070;2023-02-22T04:32:37;97479.44;;;-0.02;100.00
16030;BME280;34770;49.272;11.070;2023-02-22T04:35:04;97504.09;;;0.17;100.00
16030;BME280;34770;49.272;11.070;2023-02-22T04:37:31;97458.84;;;-0.19;100.00
16030;BME280;34770;49.272;11.070;2023-02-22T04:40:03;97484.16;;;-0.08;100.00
16030;BME280;34770;49.272;11.070;2023-02-22T04:42:35;97495.88;;;-0.02;100.00
16030;BME280;34770;49.272;11.070;2023-02-22T04:45:02;97502.06;;;0.04;100.00
16030;BME280;34770;49.272;11.070;2023-02-22T04:47:28;97517.56;;;0.13;100.00
16030;BME280;34770;49.272;11.070;2023-02-22T04:49:54;97461.00;;;-0.15;100.00
16030;BME280;34770;49.272;11.070;2023-02-22T04:52:20;97502.66;;;0.01;100.00
16030;BME280;34770;49.272;11.070;2023-02-22T04:54:46;97469.78;;;-0.19;100.00
16030;BME280;34770;49.272;11.070;2023-02-22T04:57:11;97478.63;;;-0.27;100.00
16030;BME280;34770;49.272;11.070;2023-02-22T04:59:37;97494.94;;;-0.17;100.00
16030;BME280;34770;49.272;11.070;2023-02-22T05:02:03;97492.50;;;-0.18;100.00
16030;BME280;34770;49.272;11.070;2023-02-22T05:04:28;97495.25;;;-0.18;100.00
16030;BME280;34770;49.272;11.070;2023-02-22T05:06:54;97479.78;;;-0.28;100.00
16030;BME280;34770;49.272;11.070;2023-02-22T05:09:20;97498.47;;;-0.16;100.00
16030;BME280;34770;49.272;11.070;2023-02-22T05:11:45;97466.38;;;-0.29;100.00
16030;BME280;34770;49.272;11.070;2023-02-22T05:14:11;97461.44;;;-0.27;100.00
16030;BME280;34770;49.272;11.070;2023-02-22T05:16:37;97465.72;;;-0.21;100.00
16030;BME280;34770;49.272;11.070;2023-02-22T05:19:03;97455.72;;;-0.31;100.00
16030;BME280;34770;49.272;11.070;2023-02-22T05:21:28;97471.09;;;-0.11;100.00
16030;BME280;34770;49.272;11.070;2023-02-22T05:23:54;97452.34;;;-0.23;100.00
16030;BME280;34770;49.272;11.070;2023-02-22T05:26:20;97447.00;;;-0.33;100.00
16030;BME280;34770;49.272;11.070;2023-02-22T05:28:45;97562.25;;;0.28;100.00
16030;BME280;34770;49.272;11.070;2023-02-22T05:31:11;97459.09;;;-0.39;100.00
16030;BME280;34770;49.272;11.070;2023-02-22T05:33:39;97482.59;;;-0.14;100.00
16030;BME280;34770;49.272;11.070;2023-02-22T05:36:06;97450.56;;;-0.33;100.00
16030;BME280;34770;49.272;11.070;2023-02-22T05:38:32;97565.25;;;0.51;100.00
16030;BME280;34770;49.272;11.070;2023-02-22T05:40:59;97495.03;;;-0.03;100.00
16030;BME280;34770;49.272;11.070;2023-02-22T05:43:24;97456.19;;;-0.24;100.00
16030;BME280;34770;49.272;11.070;2023-02-22T05:45:50;97481.31;;;0.03;100.00
16030;BME280;34770;49.272;11.070;2023-02-22T05:48:16;97494.81;;;-0.06;100.00
16030;BME280;34770;49.272;11.070;2023-02-22T05:50:41;97447.38;;;-0.21;100.00
16030;BME280;34770;49.272;11.070;2023-02-22T05:53:08;97543.38;;;0.26;100.00
16030;BME280;34770;49.272;11.070;2023-02-22T05:55:34;97562.59;;;0.45;100.00
16030;BME280;34770;49.272;11.070;2023-02-22T05:58:00;97449.50;;;-0.37;100.00
16030;BME280;34770;49.272;11.070;2023-02-22T06:00:30;97498.69;;;-0.07;100.00
16030;BME280;34770;49.272;11.070;2023-02-22T06:02:59;97454.63;;;-0.30;100.00
16030;BME280;34770;49.272;11.070;2023-02-22T06:05:26;97443.63;;;-0.49;100.00
16030;BME280;34770;49.272;11.070;2023-02-22T06:07:52;97540.19;;;0.19;100.00
16030;BME280;34770;49.272;11.070;2023-02-22T06:10:18;97446.59;;;-0.45;100.00
16030;BME280;34770;49.272;11.070;2023-02-22T06:12:45;97481.38;;;-0.27;100.00
16030;BME280;34770;49.272;11.070;2023-02-22T06:15:11;97435.91;;;-0.66;100.00
16030;BME280;34770;49.272;11.070;2023-02-22T06:17:36;97457.53;;;-0.45;100.00
16030;BME280;34770;49.272;11.070;2023-02-22T06:20:04;97444.16;;;-0.47;100.00
16030;BME280;34770;49.272;11.070;2023-02-22T06:22:29;97488.94;;;-0.19;100.00
16030;BME280;34770;49.272;11.070;2023-02-22T06:24:55;97478.41;;;-0.30;100.00
16030;BME280;34770;49.272;11.070;2023-02-22T06:27:21;97460.22;;;-0.40;100.00
16030;BME280;34770;49.272;11.070;2023-02-22T06:29:46;97503.38;;;-0.13;100.00
16030;BME280;34770;49.272;11.070;2023-02-22T06:32:13;97464.56;;;-0.39;100.00
16030;BME280;34770;49.272;11.070;2023-02-22T06:34:39;97497.38;;;-0.15;100.00
16030;BME280;34770;49.272;11.070;2023-02-22T06:37:07;97490.56;;;-0.18;100.00
16030;BME280;34770;49.272;11.070;2023-02-22T06:39:33;97500.66;;;-0.13;100.00
16030;BME280;34770;49.272;11.070;2023-02-22T06:41:59;97461.13;;;-0.26;100.00
16030;BME280;34770;49.272;11.070;2023-02-22T06:44:27;97456.13;;;-0.19;100.00
16030;BME280;34770;49.272;11.070;2023-02-22T06:46:52;97473.00;;;-0.11;100.00
16030;BME280;34770;49.272;11.070;2023-02-22T06:49:19;97490.47;;;-0.07;100.00
16030;BME280;34770;49.272;11.070;2023-02-22T06:51:45;97488.22;;;-0.05;100.00
16030;BME280;34770;49.272;11.070;2023-02-22T06:54:11;97479.22;;;-0.06;100.00
16030;BME280;34770;49.272;11.070;2023-02-22T06:56:39;97587.97;;;0.70;100.00
16030;BME280;34770;49.272;11.070;2023-02-22T06:59:04;97487.50;;;0.08;100.00
16030;BME280;34770;49.272;11.070;2023-02-22T07:01:30;97583.78;;;0.78;100.00
16030;BME280;34770;49.272;11.070;2023-02-22T07:03:56;97465.16;;;0.01;100.00
16030;BME280;34770;49.272;11.070;2023-02-22T07:06:22;97516.09;;;0.40;100.00
16030;BME280;34770;49.272;11.070;2023-02-22T07:08:48;97464.66;;;0.18;100.00
16030;BME280;34770;49.272;11.070;2023-02-22T07:11:15;97459.34;;;0.27;100.00
16030;BME280;34770;49.272;11.070;2023-02-22T07:13:41;97464.66;;;0.37;100.00
16030;BME280;34770;49.272;11.070;2023-02-22T07:16:07;97453.41;;;0.39;100.00
16030;BME280;34770;49.272;11.070;2023-02-22T07:18:32;97499.81;;;0.68;100.00
16030;BME280;34770;49.272;11.070;2023-02-22T07:20:58;97576.25;;;1.22;100.00
16030;BME280;34770;49.272;11.070;2023-02-22T07:23:24;97507.06;;;0.59;100.00
16030;BME280;34770;49.272;11.070;2023-02-22T07:25:50;97584.56;;;1.17;100.00
16030;BME280;34770;49.272;11.070;2023-02-22T07:28:15;97579.41;;;1.29;100.00
16030;BME280;34770;49.272;11.070;2023-02-22T07:30:41;97487.91;;;0.92;100.00
16030;BME280;34770;49.272;11.070;2023-02-22T07:33:09;97478.22;;;1.00;100.00
16030;BME280;34770;49.272;11.070;2023-02-22T07:35:42;97472.75;;;1.14;100.00
16030;BME280;34770;49.272;11.070;2023-02-22T07:38:09;97500.63;;;1.49;100.00
16030;BME280;34770;49.272;11.070;2023-02-22T07:40:36;97474.53;;;1.37;100.00
16030;BME280;34770;49.272;11.070;2023-02-22T07:43:05;97462.66;;;1.42;100.00
16030;BME280;34770;49.272;11.070;2023-02-22T07:45:35;97584.66;;;2.33;100.00
16030;BME280;34770;49.272;11.070;2023-02-22T07:48:02;97465.28;;;1.61;100.00
16030;BME280;34770;49.272;11.070;2023-02-22T07:50:29;97464.69;;;1.64;100.00
16030;BME280;34770;49.272;11.070;2023-02-22T07:52:58;97481.88;;;1.84;100.00
16030;BME280;34770;49.272;11.070;2023-02-22T07:55:28;97476.56;;;2.01;100.00
16030;BME280;34770;49.272;11.070;2023-02-22T07:57:57;97466.72;;;2.00;100.00
16030;BME280;34770;49.272;11.070;2023-02-22T08:00:29;97451.31;;;2.27;100.00
16030;BME280;34770;49.272;11.070;2023-02-22T08:02:56;97463.63;;;2.16;100.00
16030;BME280;34770;49.272;11.070;2023-02-22T08:05:26;97544.41;;;3.02;100.00
16030;BME280;34770;49.272;11.070;2023-02-22T08:07:52;97441.94;;;2.51;100.00
16030;BME280;34770;49.272;11.070;2023-02-22T08:10:20;97504.47;;;3.05;100.00
16030;BME280;34770;49.272;11.070;2023-02-22T08:12:49;97455.91;;;2.77;100.00
16030;BME280;34770;49.272;11.070;2023-02-22T08:15:21;97448.09;;;2.70;100.00
16030;BME280;34770;49.272;11.070;2023-02-22T08:17:49;97545.81;;;3.45;100.00
16030;BME280;34770;49.272;11.070;2023-02-22T08:20:15;97454.13;;;3.04;100.00
16030;BME280;34770;49.272;11.070;2023-02-22T08:22:45;97447.97;;;2.98;100.00
16030;BME280;34770;49.272;11.070;2023-02-22T08:25:12;97461.09;;;3.33;100.00
16030;BME280;34770;49.272;11.070;2023-02-22T08:40:41;97445.84;;;4.42;100.00
16030;BME280;34770;49.272;11.070;2023-02-22T08:45:44;97527.47;;;5.79;100.00
16030;BME280;34770;49.272;11.070;2023-02-22T08:48:10;97522.88;;;5.91;100.00
16030;BME280;34770;49.272;11.070;2023-02-22T08:50:35;97524.50;;;6.01;100.00
16030;BME280;34770;49.272;11.070;2023-02-22T08:53:03;97526.03;;;6.20;100.00
16030;BME280;34770;49.272;11.070;2023-02-22T08:55:34;97533.22;;;6.42;100.00
16030;BME280;34770;49.272;11.070;2023-02-22T09:36:48;97432.63;;;11.38;81.38
16030;BME280;34770;49.272;11.070;2023-02-22T09:39:16;97435.88;;;11.87;78.98
16030;BME280;34770;49.272;11.070;2023-02-22T09:46:47;97390.66;;;13.19;73.22
16030;BME280;34770;49.272;11.070;2023-02-22T09:49:30;97466.84;;;14.29;66.25
16030;BME280;34770;49.272;11.070;2023-02-22T09:52:23;97488.59;;;15.16;66.73
16030;BME280;34770;49.272;11.070;2023-02-22T09:55:18;97476.44;;;15.86;61.89
16030;BME280;34770;49.272;11.070;2023-02-22T09:57:50;97384.03;;;14.98;61.06
16030;BME280;34770;49.272;11.070;2023-02-22T10:00:28;97478.47;;;16.22;60.27
16030;BME280;34770;49.272;11.070;2023-02-22T10:03:21;97481.47;;;15.30;63.18
16030;BME280;34770;49.272;11.070;2023-02-22T10:06:00;97487.31;;;15.03;64.09
16030;BME280;34770;49.272;11.070;2023-02-22T10:08:31;97488.16;;;13.96;69.38
16030;BME280;34770;49.272;11.070;2023-02-22T10:11:11;97480.00;;;14.77;67.36
16030;BME280;34770;49.272;11.070;2023-02-22T10:27:04;97457.72;;;15.09;65.89
16030;BME280;34770;49.272;11.070;2023-02-22T10:29:32;97465.50;;;15.52;65.18
16030;BME280;34770;49.272;11.070;2023-02-22T10:32:03;97467.78;;;15.18;66.24
16030;BME280;34770;49.272;11.070;2023-02-22T10:34:38;97460.31;;;15.65;65.25
16030;BME280;34770;49.272;11.070;2023-02-22T10:37:26;97465.91;;;15.61;63.65
16030;BME280;34770;49.272;11.070;2023-02-22T10:39:57;97445.50;;;15.68;66.41
16030;BME280;34770;49.272;11.070;2023-02-22T10:42:25;97457.16;;;15.77;65.42
16030;BME280;34770;49.272;11.070;2023-02-22T10:44:52;97454.78;;;16.01;62.18
16030;BME280;34770;49.272;11.070;2023-02-22T10:47:18;97436.34;;;16.15;62.03
16030;BME280;34770;49.272;11.070;2023-02-22T10:50:02;97463.59;;;15.89;62.43
16030;BME280;34770;49.272;11.070;2023-02-22T10:52:31;97451.91;;;15.65;65.02
16030;BME280;34770;49.272;11.070;2023-02-22T10:54:59;97459.22;;;14.89;65.76
16030;BME280;34770;49.272;11.070;2023-02-22T10:57:30;97446.25;;;15.40;65.15
16030;BME280;34770;49.272;11.070;2023-02-22T10:59:57;97447.09;;;15.62;63.99
16030;BME280;34770;49.272;11.070;2023-02-22T11:02:38;97445.25;;;14.96;65.22
16030;BME280;34770;49.272;11.070;2023-02-22T11:05:04;97444.97;;;14.45;67.00
16030;BME280;34770;49.272;11.070;2023-02-22T11:07:33;97447.38;;;14.47;67.82
16030;BME280;34770;49.272;11.070;2023-02-22T11:10:06;97455.97;;;14.76;67.33
16030;BME280;34770;49.272;11.070;2023-02-22T11:12:35;97448.13;;;15.10;66.29
16030;BME280;34770;49.272;11.070;2023-02-22T11:15:23;97438.97;;;15.17;63.92
16030;BME280;34770;49.272;11.070;2023-02-22T11:17:53;97440.53;;;15.11;64.67
16030;BME280;34770;49.272;11.070;2023-02-22T11:20:25;97437.41;;;15.30;64.39
16030;BME280;34770;49.272;11.070;2023-02-22T11:22:56;97433.84;;;15.55;63.94
16030;BME280;34770;49.272;11.070;2023-02-22T11:25:37;97439.47;;;15.59;62.08
16030;BME280;34770;49.272;11.070;2023-02-22T11:28:25;97435.53;;;15.85;61.71
16030;BME280;34770;49.272;11.070;2023-02-22T11:30:56;97428.75;;;16.08;61.35
16030;BME280;34770;49.272;11.070;2023-02-22T11:33:24;97420.66;;;16.57;60.23
16030;BME280;34770;49.272;11.070;2023-02-22T11:36:01;97416.63;;;16.72;58.06
16030;BME280;34770;49.272;11.070;2023-02-22T11:38:30;97414.25;;;16.60;58.62
16030;BME280;34770;49.272;11.070;2023-02-22T11:41:06;97405.31;;;17.01;57.34
16030;BME280;34770;49.272;11.070;2023-02-22T11:43:32;97380.75;;;17.13;56.79
16030;BME280;34770;49.272;11.070;2023-02-22T11:46:08;97399.78;;;17.58;55.29
16030;BME280;34770;49.272;11.070;2023-02-22T11:48:38;97400.97;;;17.60;54.91
16030;BME280;34770;49.272;11.070;2023-02-22T11:51:14;97397.53;;;17.27;55.47
16030;BME280;34770;49.272;11.070;2023-02-22T11:56:39;97391.09;;;17.94;56.62
16030;BME280;34770;49.272;11.070;2023-02-22T12:01:53;97381.22;;;17.67;55.27
16030;BME280;34770;49.272;11.070;2023-02-22T12:15:48;97368.03;;;18.86;51.54
16030;BME280;34770;49.272;11.070;2023-02-22T12:21:07;97344.59;;;18.96;49.32
16030;BME280;34770;49.272;11.070;2023-02-22T12:23:40;97351.38;;;19.30;50.13
16030;BME280;34770;49.272;11.070;2023-02-22T12:26:19;97350.59;;;19.84;48.17
16030;BME280;34770;49.272;11.070;2023-02-22T12:29:00;97350.41;;;19.71;48.85
16030;BME280;34770;49.272;11.070;2023-02-22T12:31:42;97333.34;;;19.24;47.68
16030;BME280;34770;49.272;11.070;2023-02-22T12:34:39;97333.53;;;19.91;47.67
16030;BME280;34770;49.272;11.070;2023-02-22T12:37:18;97346.25;;;19.52;48.11
16030;BME280;34770;49.272;11.070;2023-02-22T12:40:07;97338.16;;;19.54;48.42
16030;BME280;34770;49.272;11.070;2023-02-22T12:45:12;97329.22;;;18.32;50.53
16030;BME280;34770;49.272;11.070;2023-02-22T12:47:58;97320.88;;;18.21;50.21
16030;BME280;34770;49.272;11.070;2023-02-22T12:50:28;97322.56;;;18.15;51.19
16030;BME280;34770;49.272;11.070;2023-02-22T12:53:11;97327.97;;;17.95;50.91
16030;BME280;34770;49.272;11.070;2023-02-22T12:55:46;97333.59;;;17.42;52.71
16030;BME280;34770;49.272;11.070;2023-02-22T12:58:24;97325.97;;;18.33;51.82
16030;BME280;34770;49.272;11.070;2023-02-22T13:00:59;97325.69;;;18.93;49.01
16030;BME280;34770;49.272;11.070;2023-02-22T13:03:36;97329.88;;;19.12;50.63
16030;BME280;34770;49.272;11.070;2023-02-22T13:06:27;97316.59;;;19.40;49.08
16030;BME280;34770;49.272;11.070;2023-02-22T13:09:33;97316.25;;;19.62;48.87
16030;BME280;34770;49.272;11.070;2023-02-22T13:12:30;97297.81;;;20.05;47.69
16030;BME280;34770;49.272;11.070;2023-02-22T13:18:00;97310.16;;;19.91;47.05
16030;BME280;34770;49.272;11.070;2023-02-22T13:23:38;97299.06;;;20.88;45.27
16030;BME280;34770;49.272;11.070;2023-02-22T13:26:31;97304.09;;;21.17;45.09
16030;BME280;34770;49.272;11.070;2023-02-22T13:29:26;97296.06;;;21.32;45.25
16030;BME280;34770;49.272;11.070;2023-02-22T13:32:24;97295.75;;;20.69;45.52
16030;BME280;34770;49.272;11.070;2023-02-22T13:40:37;97301.84;;;19.29;46.67
16030;BME280;34770;49.272;11.070;2023-02-22T13:52:14;97299.72;;;18.40;49.63
16030;BME280;34770;49.272;11.070;2023-02-22T13:54:45;97292.66;;;17.83;51.18
16030;BME280;34770;49.272;11.070;2023-02-22T13:57:46;97299.84;;;17.88;51.80
16030;BME280;34770;49.272;11.070;2023-02-22T14:13:12;97278.28;;;21.31;44.30
16030;BME280;34770;49.272;11.070;2023-02-22T14:18:59;97273.41;;;19.16;47.95
16030;BME280;34770;49.272;11.070;2023-02-22T14:21:26;97272.47;;;18.64;49.65
16030;BME280;34770;49.272;11.070;2023-02-22T14:23:52;97282.56;;;18.31;50.70
16030;BME280;34770;49.272;11.070;2023-02-22T14:28:49;97284.47;;;18.03;50.49
16030;BME280;34770;49.272;11.070;2023-02-22T14:31:21;97277.94;;;18.10;50.04
16030;BME280;34770;49.272;11.070;2023-02-22T14:34:06;97235.53;;;18.24;49.88
16030;BME280;34770;49.272;11.070;2023-02-22T14:41:43;97266.72;;;20.29;45.70
16030;BME280;34770;49.272;11.070;2023-02-22T14:44:10;97263.88;;;20.69;45.36
16030;BME280;34770;49.272;11.070;2023-02-22T14:46:39;97272.09;;;20.83;44.12
16030;BME280;34770;49.272;11.070;2023-02-22T14:49:08;97262.28;;;20.68;43.89
16030;BME280;34770;49.272;11.070;2023-02-22T14:51:48;97270.75;;;19.84;45.14
16030;BME280;34770;49.272;11.070;2023-02-22T14:54:35;97272.03;;;19.01;47.89
16030;BME280;34770;49.272;11.070;2023-02-22T14:57:22;97277.06;;;18.51;48.79
16030;BME280;34770;49.272;11.070;2023-02-22T15:00:00;97257.41;;;18.13;49.56
16030;BME280;34770;49.272;11.070;2023-02-22T15:02:38;97273.53;;;17.63;50.29
16030;BME280;34770;49.272;11.070;2023-02-22T15:05:05;97274.09;;;17.44;51.40
16030;BME280;34770;49.272;11.070;2023-02-22T15:07:31;97272.41;;;16.97;52.68
16030;BME280;34770;49.272;11.070;2023-02-22T15:10:30;97276.47;;;16.93;53.18
16030;BME280;34770;49.272;11.070;2023-02-22T15:12:59;97274.44;;;16.86;54.07
16030;BME280;34770;49.272;11.070;2023-02-22T15:15:39;97274.03;;;16.87;55.33
16030;BME280;34770;49.272;11.070;2023-02-22T15:20:49;97272.31;;;17.08;56.24
16030;BME280;34770;49.272;11.070;2023-02-22T15:23:21;97261.28;;;16.75;57.74
16030;BME280;34770;49.272;11.070;2023-02-22T15:25:48;97267.22;;;16.92;57.81
16030;BME280;34770;49.272;11.070;2023-02-22T15:28:15;97274.81;;;16.99;57.27
16030;BME280;34770;49.272;11.070;2023-02-22T15:30:41;97248.44;;;16.71;58.28
16030;BME280;34770;49.272;11.070;2023-02-22T15:33:28;97270.63;;;16.47;59.13
16030;BME280;34770;49.272;11.070;2023-02-22T15:35:56;97243.09;;;15.99;61.14
16030;BME280;34770;49.272;11.070;2023-02-22T15:38:27;97263.94;;;16.05;61.73
16030;BME280;34770;49.272;11.070;2023-02-22T15:41:01;97263.59;;;15.85;62.67
16030;BME280;34770;49.272;11.070;2023-02-22T15:43:27;97266.78;;;15.69;63.22
16030;BME280;34770;49.272;11.070;2023-02-22T15:45:55;97264.00;;;15.43;64.64
16030;BME280;34770;49.272;11.070;2023-02-22T15:48:21;97261.97;;;15.40;65.17
16030;BME280;34770;49.272;11.070;2023-02-22T15:51:11;97257.56;;;15.25;65.63
16030;BME280;34770;49.272;11.070;2023-02-22T15:53:45;97259.97;;;15.08;66.18
16030;BME280;34770;49.272;11.070;2023-02-22T15:56:24;97263.97;;;15.00;67.69
16030;BME280;34770;49.272;11.070;2023-02-22T15:58:50;97245.81;;;14.58;68.18
16030;BME280;34770;49.272;11.070;2023-02-22T16:01:23;97251.78;;;14.45;69.43
16030;BME280;34770;49.272;11.070;2023-02-22T16:03:54;97272.19;;;14.53;70.10
16030;BME280;34770;49.272;11.070;2023-02-22T16:06:28;97268.16;;;14.43;70.49
16030;BME280;34770;49.272;11.070;2023-02-22T16:08:55;97271.69;;;14.22;71.49
16030;BME280;34770;49.272;11.070;2023-02-22T16:11:37;97270.44;;;14.16;72.40
16030;BME280;34770;49.272;11.070;2023-02-22T16:14:29;97266.00;;;14.08;72.77
16030;BME280;34770;49.272;11.070;2023-02-22T16:22:50;97262.66;;;13.80;73.74
16030;BME280;34770;49.272;11.070;2023-02-22T16:27:48;97271.72;;;13.63;76.17
16030;BME280;34770;49.272;11.070;2023-02-22T16:32:45;97275.75;;;13.20;82.08
16030;BME280;34770;49.272;11.070;2023-02-22T16:35:11;97273.22;;;13.08;82.25
16030;BME280;34770;49.272;11.070;2023-02-22T16:37:54;97282.47;;;12.74;85.16
16030;BME280;34770;49.272;11.070;2023-02-22T16:42:49;97273.22;;;12.33;87.84
16030;BME280;34770;49.272;11.070;2023-02-22T16:45:18;97271.88;;;12.23;89.73
16030;BME280;34770;49.272;11.070;2023-02-22T16:47:44;97276.09;;;12.09;90.87
16030;BME280;34770;49.272;11.070;2023-02-22T16:50:10;97261.78;;;11.84;92.98
16030;BME280;34770;49.272;11.070;2023-02-22T16:52:38;97276.50;;;11.81;91.57
16030;BME280;34770;49.272;11.070;2023-02-22T16:55:07;97273.94;;;11.72;93.76
16030;BME280;34770;49.272;11.070;2023-02-22T16:57:33;97277.34;;;11.58;94.28
16030;BME280;34770;49.272;11.070;2023-02-22T16:59:59;97276.66;;;11.42;94.78
16030;BME280;34770;49.272;11.070;2023-02-22T17:02:24;97281.03;;;11.16;97.08
16030;BME280;34770;49.272;11.070;2023-02-22T17:04:52;97284.66;;;11.20;97.25
16030;BME280;34770;49.272;11.070;2023-02-22T17:07:19;97280.59;;;11.14;96.69
16030;BME280;34770;49.272;11.070;2023-02-22T17:09:47;97277.00;;;11.13;98.00
16030;BME280;34770;49.272;11.070;2023-02-22T17:12:15;97268.91;;;11.05;98.65
16030;BME280;34770;49.272;11.070;2023-02-22T17:14:44;97284.31;;;10.98;97.49
16030;BME280;34770;49.272;11.070;2023-02-22T17:17:15;97290.88;;;10.87;99.51
16030;BME280;34770;49.272;11.070;2023-02-22T17:19:40;97287.44;;;10.74;99.22
16030;BME280;34770;49.272;11.070;2023-02-22T17:22:06;97296.22;;;10.76;99.91
16030;BME280;34770;49.272;11.070;2023-02-22T17:24:34;97283.06;;;10.53;98.60
16030;BME280;34770;49.272;11.070;2023-02-22T17:27:00;97290.31;;;10.58;98.80
16030;BME280;34770;49.272;11.070;2023-02-22T17:29:27;97289.53;;;10.57;100.00
16030;BME280;34770;49.272;11.070;2023-02-22T17:31:53;97293.53;;;10.60;100.00
16030;BME280;34770;49.272;11.070;2023-02-22T17:34:19;97289.38;;;10.50;99.59
16030;BME280;34770;49.272;11.070;2023-02-22T17:36:45;97298.31;;;10.40;100.00
16030;BME280;34770;49.272;11.070;2023-02-22T17:39:10;97301.53;;;10.42;100.00
16030;BME280;34770;49.272;11.070;2023-02-22T17:41:37;97297.84;;;10.37;100.00
16030;BME280;34770;49.272;11.070;2023-02-22T17:44:03;97287.22;;;10.24;100.00
16030;BME280;34770;49.272;11.070;2023-02-22T17:46:29;97299.13;;;10.24;100.00
16030;BME280;34770;49.272;11.070;2023-02-22T17:48:54;97308.16;;;10.17;100.00
16030;BME280;34770;49.272;11.070;2023-02-22T17:51:23;97299.66;;;10.10;100.00
16030;BME280;34770;49.272;11.070;2023-02-22T17:53:49;97287.22;;;10.04;100.00
16030;BME280;34770;49.272;11.070;2023-02-22T17:56:16;97301.03;;;10.00;100.00
16030;BME280;34770;49.272;11.070;2023-02-22T17:58:46;97296.03;;;9.90;100.00
16030;BME280;34770;49.272;11.070;2023-02-22T18:01:25;97306.41;;;9.73;100.00
16030;BME280;34770;49.272;11.070;2023-02-22T18:03:56;97300.19;;;9.80;100.00
16030;BME280;34770;49.272;11.070;2023-02-22T18:06:24;97300.84;;;9.73;100.00
16030;BME280;34770;49.272;11.070;2023-02-22T18:08:56;97295.63;;;9.72;100.00
16030;BME280;34770;49.272;11.070;2023-02-22T18:11:23;97294.38;;;9.69;100.00
16030;BME280;34770;49.272;11.070;2023-02-22T18:13:59;97301.75;;;9.62;100.00
16030;BME280;34770;49.272;11.070;2023-02-22T18:16:25;97293.59;;;9.53;100.00
16030;BME280;34770;49.272;11.070;2023-02-22T18:18:50;97295.75;;;9.60;100.00
16030;BME280;34770;49.272;11.070;2023-02-22T18:21:16;97290.63;;;9.62;100.00
16030;BME280;34770;49.272;11.070;2023-02-22T18:23:42;97294.56;;;9.61;100.00
16030;BME280;34770;49.272;11.070;2023-02-22T18:26:17;97302.75;;;9.53;100.00
16030;BME280;34770;49.272;11.070;2023-02-22T18:28:43;97297.81;;;9.47;100.00
16030;BME280;34770;49.272;11.070;2023-02-22T18:31:11;97302.88;;;9.25;100.00
16030;BME280;34770;49.272;11.070;2023-02-22T18:33:44;97295.69;;;9.40;100.00
16030;BME280;34770;49.272;11.070;2023-02-22T18:36:11;97296.56;;;9.28;100.00
16030;BME280;34770;49.272;11.070;2023-02-22T18:38:38;97292.28;;;9.31;100.00
16030;BME280;34770;49.272;11.070;2023-02-22T18:41:11;97303.09;;;9.20;100.00
16030;BME280;34770;49.272;11.070;2023-02-22T18:43:37;97287.97;;;9.17;100.00
16030;BME280;34770;49.272;11.070;2023-02-22T18:46:25;97299.63;;;9.23;100.00
16030;BME280;34770;49.272;11.070;2023-02-22T18:48:53;97311.53;;;9.23;100.00
16030;BME280;34770;49.272;11.070;2023-02-22T18:51:19;97309.56;;;9.24;100.00
16030;BME280;34770;49.272;11.070;2023-02-22T18:53:45;97308.56;;;9.16;100.00
16030;BME280;34770;49.272;11.070;2023-02-22T18:56:14;97308.16;;;9.14;100.00
16030;BME280;34770;49.272;11.070;2023-02-22T18:58:40;97300.50;;;8.95;100.00
16030;BME280;34770;49.272;11.070;2023-02-22T19:01:13;97301.75;;;8.98;100.00
16030;BME280;34770;49.272;11.070;2023-02-22T19:03:39;97303.19;;;8.91;100.00
16030;BME280;34770;49.272;11.070;2023-02-22T19:06:06;97303.56;;;8.90;100.00
16030;BME280;34770;49.272;11.070;2023-02-22T19:08:36;97306.13;;;8.83;100.00
16030;BME280;34770;49.272;11.070;2023-02-22T19:11:08;97303.66;;;8.93;100.00
16030;BME280;34770;49.272;11.070;2023-02-22T19:13:35;97305.88;;;8.88;100.00
16030;BME280;34770;49.272;11.070;2023-02-22T19:16:02;97308.53;;;8.68;100.00
16030;BME280;34770;49.272;11.070;2023-02-22T19:18:29;97307.06;;;8.58;100.00
16030;BME280;34770;49.272;11.070;2023-02-22T19:20:56;97309.66;;;8.51;100.00
16030;BME280;34770;49.272;11.070;2023-02-22T19:23:22;97316.44;;;8.54;100.00
16030;BME280;34770;49.272;11.070;2023-02-22T19:25:47;97301.31;;;8.51;100.00
16030;BME280;34770;49.272;11.070;2023-02-22T19:28:14;97319.47;;;8.49;100.00
16030;BME280;34770;49.272;11.070;2023-02-22T19:30:43;97319.53;;;8.24;100.00